createdAt,value
2023-10-10T00:00:34.613Z,3.45
2023-10-10T00:03:01.851Z,3.92
2023-10-10T00:05:30.233Z,4.20
2023-10-10T00:07:57.199Z,4.05
2023-10-10T00:10:24.191Z,3.45
2023-10-10T00:12:51.067Z,3.20
2023-10-10T00:15:18.195Z,3.85
2023-10-10T00:17:45.153Z,3.20
2023-10-10T00:20:12.308Z,4.32
2023-10-10T00:22:40.561Z,3.72
2023-10-10T00:25:08.284Z,3.63
2023-10-10T00:27:35.389Z,3.72
2023-10-10T00:30:02.364Z,3.40
2023-10-10T00:32:29.265Z,3.45
2023-10-10T00:34:56.356Z,4.03
2023-10-10T00:37:23.506Z,3.65
2023-10-10T00:39:52.229Z,3.53
2023-10-10T00:42:20.269Z,4.22
2023-10-10T00:44:47.202Z,4.22
2023-10-10T00:47:14.707Z,3.40
2023-10-10T00:49:42.762Z,4.05
2023-10-10T00:52:09.926Z,3.80
2023-10-10T00:54:37.748Z,3.70
2023-10-10T00:57:06.784Z,3.22
2023-10-10T00:59:33.787Z,3.70
2023-10-10T01:02:01.084Z,3.92
2023-10-10T01:04:29.195Z,3.47
2023-10-10T01:06:56.425Z,3.97
2023-10-10T01:09:31.612Z,3.60
2023-10-10T01:11:58.502Z,3.70
2023-10-10T01:14:26.978Z,3.45
2023-10-10T01:16:54.313Z,3.30
2023-10-10T01:19:21.558Z,3.92
2023-10-10T01:21:49.979Z,3.05
2023-10-10T01:24:16.957Z,3.38
2023-10-10T01:26:44.122Z,3.28
2023-10-10T01:29:11.378Z,3.53
2023-10-10T01:31:38.259Z,2.88
2023-10-10T01:34:05.178Z,3.40
2023-10-10T01:36:32.289Z,3.10
2023-10-10T01:39:20.895Z,3.92
2023-10-10T01:41:47.909Z,3.00
2023-10-10T01:44:15.409Z,3.42
2023-10-10T01:46:42.976Z,4.18
2023-10-10T01:49:10.835Z,3.45
2023-10-10T01:51:37.727Z,3.65
2023-10-10T01:54:05.064Z,3.35
2023-10-10T01:56:33.642Z,3.47
2023-10-10T01:59:01.534Z,3.85
2023-10-10T02:01:28.761Z,2.85
2023-10-10T02:03:56.010Z,4.45
2023-10-10T02:06:22.904Z,3.08
2023-10-10T02:08:49.826Z,3.58
2023-10-10T02:11:16.806Z,3.55
2023-10-10T02:13:45.278Z,3.25
2023-10-10T02:16:12.471Z,3.90
2023-10-10T02:18:40.329Z,4.00
2023-10-10T02:21:07.662Z,4.68
2023-10-10T02:23:34.864Z,5.30
2023-10-10T02:26:03.635Z,4.72
2023-10-10T02:28:31.019Z,5.68
2023-10-10T02:30:59.929Z,5.60
2023-10-10T02:33:26.772Z,5.70
2023-10-10T02:35:54.533Z,5.28
2023-10-10T02:38:23.147Z,5.80
2023-10-10T02:40:50.964Z,6.53
2023-10-10T02:43:18.089Z,6.40
2023-10-10T02:45:44.952Z,6.43
2023-10-10T02:48:13.429Z,6.25
2023-10-10T02:50:40.297Z,6.95
2023-10-10T02:53:07.717Z,6.45
2023-10-10T02:55:36.303Z,6.30
2023-10-10T02:58:03.391Z,5.70
2023-10-10T03:00:31.037Z,5.63
2023-10-10T03:02:58.672Z,4.80
2023-10-10T03:05:27.657Z,4.97
2023-10-10T03:07:54.541Z,4.57
2023-10-10T03:10:21.757Z,3.83
2023-10-10T03:12:49.336Z,3.90
2023-10-10T03:15:16.848Z,3.97
2023-10-10T03:17:43.945Z,3.70
2023-10-10T03:20:11.403Z,3.88
2023-10-10T03:22:39.765Z,3.75
2023-10-10T03:25:07.449Z,3.85
2023-10-10T03:27:34.497Z,4.15
2023-10-10T03:30:01.589Z,3.85
2023-10-10T03:32:28.537Z,3.53
2023-10-10T03:34:55.802Z,3.58
2023-10-10T03:37:22.992Z,4.05
2023-10-10T03:39:51.435Z,3.65
2023-10-10T03:42:18.285Z,3.22
2023-10-10T03:44:45.501Z,3.72
2023-10-10T03:47:12.418Z,3.88
2023-10-10T03:49:39.519Z,3.80
2023-10-10T03:52:06.925Z,4.10
2023-10-10T03:54:34.232Z,3.50
2023-10-10T03:57:03.018Z,3.30
2023-10-10T03:59:30.045Z,3.22
2023-10-10T04:01:56.944Z,3.25
2023-10-10T04:04:24.172Z,3.75
2023-10-10T04:06:51.156Z,3.78
2023-10-10T04:09:18.001Z,3.38
2023-10-10T04:11:46.127Z,3.88
2023-10-10T04:14:14.852Z,3.63
2023-10-10T04:16:42.777Z,3.33
2023-10-10T04:19:09.647Z,3.30
2023-10-10T04:21:36.499Z,4.63
2023-10-10T04:24:03.663Z,4.13
2023-10-10T04:26:30.836Z,4.40
2023-10-10T04:28:57.710Z,4.00
2023-10-10T04:31:26.186Z,3.53
2023-10-10T04:33:54.534Z,3.60
2023-10-10T04:36:21.552Z,3.95
2023-10-10T04:38:48.492Z,3.53
2023-10-10T04:41:15.616Z,4.15
2023-10-10T04:43:43.769Z,4.70
2023-10-10T04:46:15.902Z,4.45
2023-10-10T04:48:44.248Z,3.83
2023-10-10T04:51:11.194Z,4.03
2023-10-10T04:53:38.365Z,3.90
2023-10-10T04:56:05.393Z,3.17
2023-10-10T04:58:32.347Z,4.90
2023-10-10T05:01:06.557Z,4.07
2023-10-10T05:03:33.500Z,8.77
2023-10-10T05:06:03.302Z,5.22
2023-10-10T05:08:30.583Z,4.82
2023-10-10T05:10:57.472Z,5.22
2023-10-10T05:13:24.719Z,4.47
2023-10-10T05:15:52.002Z,4.72
2023-10-10T05:18:19.109Z,4.72
2023-10-10T05:20:46.184Z,3.95
2023-10-10T05:23:15.178Z,3.92
2023-10-10T05:25:42.511Z,4.50
2023-10-10T05:28:11.392Z,4.32
2023-10-10T05:30:38.872Z,5.70
2023-10-10T05:33:06.422Z,3.70
2023-10-10T05:35:35.351Z,4.70
2023-10-10T05:38:02.747Z,4.65
2023-10-10T05:40:31.417Z,3.95
2023-10-10T05:42:58.678Z,4.05
2023-10-10T05:45:25.807Z,4.10
2023-10-10T05:47:53.464Z,4.43
2023-10-10T05:50:20.752Z,3.92
2023-10-10T05:52:47.681Z,4.40
2023-10-10T05:55:15.142Z,4.47
2023-10-10T05:57:43.495Z,4.38
2023-10-10T06:00:12.320Z,3.80
2023-10-10T06:02:39.562Z,3.83
2023-10-10T06:05:07.761Z,3.75
2023-10-10T06:07:34.652Z,4.07
2023-10-10T06:10:01.692Z,3.90
2023-10-10T06:12:28.720Z,4.43
2023-10-10T06:14:56.923Z,3.85
2023-10-10T06:17:24.357Z,4.22
2023-10-10T06:19:51.771Z,3.95
2023-10-10T06:22:18.720Z,4.25
2023-10-10T06:24:45.900Z,4.60
2023-10-10T06:27:12.771Z,4.72
2023-10-10T06:29:39.830Z,5.10
2023-10-10T06:32:08.301Z,4.85
2023-10-10T06:34:35.271Z,4.50
2023-10-10T06:37:02.292Z,4.80
2023-10-10T06:39:29.457Z,4.35
2023-10-10T06:41:56.439Z,4.35
2023-10-10T06:44:26.351Z,5.63
2023-10-10T06:46:53.659Z,4.72
2023-10-10T06:49:22.507Z,5.15
2023-10-10T06:51:49.424Z,4.97
2023-10-10T06:54:16.765Z,4.47
2023-10-10T06:56:44.101Z,4.90
2023-10-10T06:59:11.234Z,4.07
2023-10-10T07:01:38.496Z,4.05
2023-10-10T07:04:06.275Z,4.30
2023-10-10T07:06:34.730Z,4.75
2023-10-10T07:09:01.657Z,4.82
2023-10-10T07:11:28.905Z,4.00
2023-10-10T07:13:56.384Z,4.95
2023-10-10T07:16:23.309Z,4.60
2023-10-10T07:18:50.511Z,4.10
2023-10-10T07:21:17.326Z,4.68
2023-10-10T07:23:48.193Z,4.57
2023-10-10T07:26:15.420Z,4.72
2023-10-10T07:28:42.451Z,4.47
2023-10-10T07:31:11.119Z,4.53
2023-10-10T07:33:38.124Z,4.57
2023-10-10T07:36:06.935Z,3.45
2023-10-10T07:38:33.844Z,3.85
2023-10-10T07:41:02.586Z,4.18
2023-10-10T07:43:29.919Z,4.10
2023-10-10T07:45:57.094Z,3.88
2023-10-10T07:48:24.562Z,4.18
2023-10-10T07:50:51.486Z,4.53
2023-10-10T07:53:19.092Z,3.85
2023-10-10T07:55:46.260Z,4.30
2023-10-10T07:58:14.579Z,3.80
2023-10-10T08:00:41.760Z,4.25
2023-10-10T08:03:09.068Z,4.80
2023-10-10T08:05:36.358Z,4.15
2023-10-10T08:08:03.408Z,3.53
2023-10-10T08:10:30.296Z,3.60
2023-10-10T08:12:57.461Z,4.95
2023-10-10T08:15:25.720Z,4.05
2023-10-10T08:17:54.368Z,4.07
2023-10-10T08:20:21.554Z,3.90
2023-10-10T08:22:48.496Z,3.15
2023-10-10T08:25:15.414Z,4.07
2023-10-10T08:27:43.743Z,4.60
2023-10-10T08:30:13.012Z,3.60
2023-10-10T08:32:41.508Z,3.92
2023-10-10T08:35:09.440Z,3.38
2023-10-10T08:37:36.422Z,3.55
2023-10-10T08:40:03.708Z,4.40
2023-10-10T08:42:31.418Z,3.97
2023-10-10T08:44:59.429Z,3.67
2023-10-10T08:47:26.888Z,3.40
2023-10-10T08:49:56.148Z,4.45
2023-10-10T08:52:24.406Z,3.65
2023-10-10T08:54:51.961Z,3.90
2023-10-10T08:57:18.860Z,3.85
2023-10-10T08:59:46.035Z,4.25
2023-10-10T09:02:13.213Z,3.90
2023-10-10T09:04:40.718Z,4.20
2023-10-10T09:07:09.916Z,3.97
2023-10-10T09:09:37.173Z,3.63
2023-10-10T09:12:05.314Z,4.07
2023-10-10T09:14:37.349Z,3.92
2023-10-10T09:17:04.215Z,4.15
2023-10-10T09:19:31.871Z,4.18
2023-10-10T09:21:58.750Z,4.15
2023-10-10T09:24:27.114Z,4.63
2023-10-10T09:26:54.323Z,4.05
2023-10-10T09:29:30.384Z,3.83
2023-10-10T09:31:57.261Z,4.30
2023-10-10T09:34:24.873Z,4.15
2023-10-10T09:36:56.743Z,4.28
2023-10-10T09:39:29.081Z,4.00
2023-10-10T09:41:59.668Z,3.95
2023-10-10T09:44:26.854Z,3.80
2023-10-10T09:47:02.420Z,4.28
2023-10-10T09:49:30.862Z,4.13
2023-10-10T09:51:58.973Z,4.72
2023-10-10T09:54:28.382Z,3.78
2023-10-10T09:56:57.394Z,3.83
2023-10-10T09:59:24.258Z,3.85
2023-10-10T10:01:51.550Z,3.92
2023-10-10T10:04:25.030Z,4.50
2023-10-10T10:07:12.539Z,4.20
2023-10-10T10:10:30.324Z,4.35
2023-10-10T10:13:21.487Z,3.80
2023-10-10T10:16:10.825Z,4.68
2023-10-10T10:18:38.064Z,3.92
2023-10-10T10:21:05.299Z,3.80
2023-10-10T10:23:33.090Z,4.22
2023-10-10T10:26:00.257Z,3.72
2023-10-10T10:28:29.188Z,3.85
2023-10-10T10:30:56.158Z,4.10
2023-10-10T10:33:24.968Z,4.03
2023-10-10T10:36:03.315Z,4.45
2023-10-10T10:38:31.558Z,4.43
2023-10-10T10:41:00.238Z,4.20
2023-10-10T10:43:28.815Z,4.05
2023-10-10T10:45:55.872Z,4.18
2023-10-10T10:48:31.218Z,4.13
2023-10-10T10:51:02.715Z,4.07
2023-10-10T10:53:36.865Z,3.90
2023-10-10T10:56:05.888Z,3.80
2023-10-10T10:58:34.810Z,3.83
2023-10-10T11:01:04.398Z,4.28
2023-10-10T11:03:37.175Z,3.80
2023-10-10T11:06:06.745Z,3.40
2023-10-10T11:08:42.697Z,4.15
2023-10-10T11:11:13.408Z,3.88
2023-10-10T11:13:41.924Z,3.97
2023-10-10T11:16:08.849Z,3.88
2023-10-10T11:18:36.976Z,3.58
2023-10-10T11:21:04.431Z,4.25
2023-10-10T11:23:31.701Z,4.00
2023-10-10T11:25:58.671Z,4.20
2023-10-10T11:28:29.491Z,3.67
2023-10-10T11:31:03.789Z,3.75
2023-10-10T11:33:35.291Z,3.53
2023-10-10T11:36:24.096Z,4.55
2023-10-10T11:38:51.085Z,4.07
2023-10-10T11:41:25.143Z,3.92
2023-10-10T11:43:59.333Z,4.20
2023-10-10T11:46:28.027Z,4.15
2023-10-10T11:48:54.932Z,4.28
2023-10-10T11:51:33.932Z,3.90
2023-10-10T11:54:01.112Z,3.78
2023-10-10T11:56:28.110Z,3.80
2023-10-10T11:58:55.341Z,3.88
2023-10-10T12:01:22.297Z,3.92
2023-10-10T12:03:50.856Z,4.05
2023-10-10T12:06:17.944Z,4.72
2023-10-10T12:08:45.803Z,3.78
2023-10-10T12:11:12.872Z,3.83
2023-10-10T12:13:40.347Z,4.45
2023-10-10T12:16:07.799Z,3.88
2023-10-10T12:18:35.878Z,4.18
2023-10-10T12:21:04.540Z,3.80
2023-10-10T12:23:32.195Z,4.50
2023-10-10T12:25:59.823Z,4.00
2023-10-10T12:28:27.161Z,3.80
2023-10-10T12:30:54.428Z,3.78
2023-10-10T12:33:21.434Z,3.55
2023-10-10T12:35:48.582Z,3.50
2023-10-10T12:38:18.341Z,3.60
2023-10-10T12:40:45.351Z,4.45
2023-10-10T12:43:12.167Z,4.20
2023-10-10T12:45:40.254Z,3.30
2023-10-10T12:48:07.502Z,3.65
2023-10-10T12:50:34.689Z,3.50
2023-10-10T12:53:01.651Z,3.80
2023-10-10T12:55:30.463Z,3.65
2023-10-10T12:57:57.271Z,3.60
2023-10-10T13:00:24.945Z,3.78
2023-10-10T13:02:52.217Z,3.60
2023-10-10T13:05:19.237Z,3.92
2023-10-10T13:07:46.198Z,3.35
2023-10-10T13:10:15.581Z,3.60
2023-10-10T13:12:44.352Z,3.60
2023-10-10T13:15:11.478Z,4.10
2023-10-10T13:17:38.396Z,3.88
2023-10-10T13:20:06.071Z,3.92
2023-10-10T13:22:33.075Z,3.78
2023-10-10T13:24:59.980Z,3.25
2023-10-10T13:27:27.203Z,3.75
2023-10-10T13:29:55.785Z,4.30
2023-10-10T13:32:22.683Z,3.60
2023-10-10T13:34:49.664Z,3.60
2023-10-10T13:37:16.893Z,3.63
2023-10-10T13:39:44.183Z,3.65
2023-10-10T13:42:13.009Z,3.63
2023-10-10T13:44:40.210Z,3.70
2023-10-10T13:47:09.184Z,3.63
2023-10-10T13:49:36.108Z,3.17
2023-10-10T13:52:03.308Z,3.78
2023-10-10T13:54:30.499Z,3.80
2023-10-10T13:56:57.393Z,4.13
2023-10-10T13:59:24.252Z,3.58
2023-10-10T14:01:51.226Z,4.25
2023-10-10T14:04:20.015Z,3.90
2023-10-10T14:06:48.149Z,3.80
2023-10-10T14:09:15.399Z,3.55
2023-10-10T14:11:42.310Z,3.80
2023-10-10T14:14:09.445Z,3.90
2023-10-10T14:16:36.341Z,3.72
2023-10-10T14:19:03.362Z,3.60
2023-10-10T14:21:31.868Z,3.70
2023-10-10T14:23:59.067Z,3.92
2023-10-10T14:26:26.318Z,3.60
2023-10-10T14:28:53.475Z,3.80
2023-10-10T14:31:21.618Z,4.82
2023-10-10T14:33:48.954Z,3.70
2023-10-10T14:36:15.978Z,4.00
2023-10-10T14:38:44.994Z,3.53
2023-10-10T14:41:13.253Z,3.78
2023-10-10T14:43:40.125Z,3.33
2023-10-10T14:46:07.038Z,3.22
2023-10-10T14:48:34.189Z,3.83
2023-10-10T14:51:01.182Z,3.45
2023-10-10T14:53:28.596Z,3.33
2023-10-10T14:55:57.258Z,3.97
2023-10-10T14:58:24.405Z,3.80
2023-10-10T15:00:51.325Z,3.83
2023-10-10T15:03:18.592Z,3.70
2023-10-10T15:05:50.567Z,3.88
2023-10-10T15:08:19.326Z,3.65
2023-10-10T15:10:47.617Z,3.88
2023-10-10T15:13:15.934Z,3.88
2023-10-10T15:15:44.549Z,3.92
2023-10-10T15:18:11.721Z,3.88
2023-10-10T15:20:38.692Z,3.70
2023-10-10T15:23:05.584Z,4.20
2023-10-10T15:25:32.890Z,4.00
2023-10-10T15:27:59.809Z,4.28
2023-10-10T15:30:28.188Z,4.00
2023-10-10T15:32:55.422Z,4.72
2023-10-10T15:35:22.393Z,3.50
2023-10-10T15:37:50.676Z,3.10
2023-10-10T15:40:17.693Z,4.10
2023-10-10T15:42:44.840Z,4.38
2023-10-10T15:45:11.921Z,4.30
2023-10-10T15:47:40.596Z,4.05
2023-10-10T15:50:09.006Z,4.00
2023-10-10T15:52:36.194Z,3.65
2023-10-10T15:55:03.417Z,3.90
2023-10-10T15:57:30.291Z,4.50
2023-10-10T15:59:57.399Z,4.25
2023-10-10T16:02:24.615Z,4.22
2023-10-10T16:04:53.401Z,3.92
2023-10-10T16:07:21.362Z,3.97
2023-10-10T16:09:48.227Z,4.03
2023-10-10T16:12:15.411Z,4.07
2023-10-10T16:14:43.116Z,4.55
2023-10-10T16:17:10.323Z,4.85
2023-10-10T16:19:37.531Z,5.00
2023-10-10T16:22:05.787Z,5.13
2023-10-10T16:24:32.768Z,5.28
2023-10-10T16:27:00.214Z,4.63
2023-10-10T16:29:28.241Z,4.82
2023-10-10T16:31:55.141Z,4.03
2023-10-10T16:34:22.169Z,4.35
2023-10-10T16:36:49.323Z,4.10
2023-10-10T16:39:17.990Z,3.97
2023-10-10T16:41:44.959Z,5.00
2023-10-10T16:44:12.840Z,4.30
2023-10-10T16:46:41.761Z,4.68
2023-10-10T16:49:09.145Z,4.82
2023-10-10T16:51:36.490Z,6.18
2023-10-10T16:54:03.933Z,6.95
2023-10-10T16:56:32.950Z,5.55
2023-10-10T16:59:00.118Z,6.65
2023-10-10T17:01:27.358Z,6.40
2023-10-10T17:03:54.454Z,6.53
2023-10-10T17:06:22.461Z,6.63
2023-10-10T17:08:49.505Z,6.00
2023-10-10T17:11:16.472Z,6.20
2023-10-10T17:13:44.915Z,7.25
2023-10-10T17:16:13.807Z,6.40
2023-10-10T17:18:41.465Z,6.10
2023-10-10T17:21:08.879Z,6.28
2023-10-10T17:23:35.761Z,7.60
2023-10-10T17:26:02.939Z,6.60
2023-10-10T17:28:29.803Z,6.50
2023-10-10T17:30:58.905Z,7.60
2023-10-10T17:33:25.933Z,6.82
2023-10-10T17:35:53.209Z,7.22
2023-10-10T17:38:20.177Z,7.03
2023-10-10T17:40:47.464Z,6.88
2023-10-10T17:43:14.872Z,6.63
2023-10-10T17:45:41.960Z,6.15
2023-10-10T17:48:11.977Z,7.18
2023-10-10T17:50:39.193Z,7.03
2023-10-10T17:53:06.860Z,5.97
2023-10-10T17:55:36.628Z,5.72
2023-10-10T17:58:03.673Z,6.10
2023-10-10T18:00:30.628Z,5.80
2023-10-10T18:02:57.789Z,5.43
2023-10-10T18:05:26.431Z,5.90
2023-10-10T18:07:53.625Z,5.78
2023-10-10T18:10:21.204Z,5.75
2023-10-10T18:12:48.347Z,5.30
2023-10-10T18:15:15.761Z,5.05
2023-10-10T18:17:42.764Z,5.43
2023-10-10T18:20:14.430Z,6.15
2023-10-10T18:22:43.818Z,5.80
2023-10-10T18:25:12.182Z,4.95
2023-10-10T18:27:39.168Z,5.78
2023-10-10T18:30:07.368Z,4.93
2023-10-10T18:32:34.666Z,5.55
2023-10-10T18:35:01.607Z,4.97
2023-10-10T18:37:28.503Z,4.50
2023-10-10T18:39:56.779Z,5.07
2023-10-10T18:42:24.184Z,5.28
2023-10-10T18:44:51.120Z,5.93
2023-10-10T18:47:18.171Z,5.15
2023-10-10T18:49:45.786Z,5.40
2023-10-10T18:52:12.968Z,5.18
2023-10-10T18:54:41.010Z,5.38
2023-10-10T18:57:09.430Z,6.05
2023-10-10T18:59:36.480Z,5.47
2023-10-10T19:02:03.630Z,4.95
2023-10-10T19:04:30.621Z,5.68
2023-10-10T19:06:57.855Z,5.35
2023-10-10T19:09:25.099Z,4.85
2023-10-10T19:11:52.112Z,5.03
2023-10-10T19:14:20.760Z,5.95
2023-10-10T19:16:47.680Z,5.53
2023-10-10T19:19:14.689Z,5.43
2023-10-10T19:21:41.899Z,5.35
2023-10-10T19:24:09.227Z,5.68
2023-10-10T19:26:36.232Z,5.82
2023-10-10T19:29:03.415Z,5.40
2023-10-10T19:31:31.992Z,5.55
2023-10-10T19:33:59.014Z,5.57
2023-10-10T19:36:26.262Z,6.53
2023-10-10T19:38:53.577Z,5.25
2023-10-10T19:41:20.514Z,5.72
2023-10-10T19:43:47.457Z,5.28
2023-10-10T19:46:14.443Z,5.25
2023-10-10T19:48:43.223Z,4.90
2023-10-10T19:51:14.130Z,5.28
2023-10-10T19:53:41.213Z,5.88
2023-10-10T19:56:11.928Z,5.53
2023-10-10T19:58:38.950Z,5.47
2023-10-10T20:01:06.161Z,5.60
2023-10-10T20:03:33.621Z,5.22
2023-10-10T20:06:02.079Z,6.00
2023-10-10T20:08:29.161Z,5.85
2023-10-10T20:10:57.258Z,4.75
2023-10-10T20:13:24.437Z,6.20
2023-10-10T20:15:51.593Z,5.10
2023-10-10T20:18:18.711Z,5.97
2023-10-10T20:20:45.835Z,5.50
2023-10-10T20:23:14.544Z,5.68
2023-10-10T20:25:42.719Z,6.10
2023-10-10T20:28:10.817Z,4.95
2023-10-10T20:30:42.128Z,6.90
2023-10-10T20:33:09.143Z,5.22
2023-10-10T20:35:36.636Z,4.95
2023-10-10T20:38:04.961Z,5.43
2023-10-10T20:40:35.130Z,5.70
2023-10-10T20:43:03.924Z,7.55
2023-10-10T20:45:31.746Z,5.97
2023-10-10T20:47:59.766Z,5.90
2023-10-10T20:50:28.019Z,6.13
2023-10-10T20:52:55.700Z,5.30
2023-10-10T20:55:23.922Z,5.60
2023-10-10T20:57:53.333Z,5.30
2023-10-10T21:00:21.373Z,5.45
2023-10-10T21:02:48.663Z,5.75
2023-10-10T21:05:16.290Z,5.47
2023-10-10T21:07:43.527Z,5.72
2023-10-10T21:10:10.900Z,5.47
2023-10-10T21:12:38.085Z,5.03
2023-10-10T21:15:09.258Z,5.50
2023-10-10T21:17:36.496Z,5.13
2023-10-10T21:20:03.982Z,4.95
2023-10-10T21:22:32.282Z,5.03
2023-10-10T21:24:59.478Z,5.10
2023-10-10T21:27:26.734Z,4.50
2023-10-10T21:29:54.560Z,5.20
2023-10-10T21:32:25.474Z,4.47
2023-10-10T21:34:52.701Z,4.88
2023-10-10T21:37:19.637Z,5.63
2023-10-10T21:39:48.450Z,4.25
2023-10-10T21:42:15.362Z,5.60
2023-10-10T21:44:42.478Z,5.50
2023-10-10T21:47:09.761Z,4.53
2023-10-10T21:49:39.460Z,5.18
2023-10-10T21:52:06.298Z,4.75
2023-10-10T21:54:33.120Z,4.55
2023-10-10T21:57:00.379Z,4.43
2023-10-10T21:59:27.662Z,4.65
2023-10-10T22:01:54.954Z,4.78
2023-10-10T22:04:22.411Z,4.95
2023-10-10T22:06:50.853Z,5.57
2023-10-10T22:09:18.059Z,5.13
2023-10-10T22:11:45.377Z,4.53
2023-10-10T22:14:12.570Z,4.90
2023-10-10T22:16:41.261Z,4.32
2023-10-10T22:19:08.614Z,4.15
2023-10-10T22:21:35.537Z,4.82
2023-10-10T22:24:04.460Z,4.10
2023-10-10T22:26:31.729Z,4.60
2023-10-10T22:28:58.782Z,4.10
2023-10-10T22:31:25.777Z,4.75
2023-10-10T22:33:53.512Z,4.60
2023-10-10T22:36:20.381Z,5.15
2023-10-10T22:38:47.426Z,4.80
2023-10-10T22:41:16.642Z,4.50
2023-10-10T22:43:43.539Z,4.82
2023-10-10T22:46:10.401Z,4.30
2023-10-10T22:48:37.755Z,4.38
2023-10-10T22:51:04.964Z,4.30
2023-10-10T22:53:32.545Z,4.47
2023-10-10T22:56:00.184Z,4.18
2023-10-10T22:58:28.398Z,4.00
2023-10-10T23:00:55.730Z,4.43
2023-10-10T23:03:22.697Z,4.68
2023-10-10T23:05:50.085Z,3.90
2023-10-10T23:08:17.282Z,4.47
2023-10-10T23:10:44.108Z,4.72
2023-10-10T23:13:11.184Z,4.55
2023-10-10T23:15:39.684Z,4.40
2023-10-10T23:18:07.228Z,4.07
2023-10-10T23:20:34.222Z,4.15
2023-10-10T23:23:02.479Z,4.07
2023-10-10T23:25:29.412Z,4.70
2023-10-10T23:27:56.696Z,4.25
2023-10-10T23:30:23.843Z,4.35
2023-10-10T23:32:53.076Z,4.53
2023-10-10T23:35:20.476Z,4.57
2023-10-10T23:37:47.432Z,4.78
2023-10-10T23:40:14.444Z,3.97
2023-10-10T23:42:42.231Z,4.00
2023-10-10T23:45:10.635Z,4.00
2023-10-10T23:47:39.083Z,4.45
2023-10-10T23:50:08.653Z,4.22
2023-10-10T23:52:35.768Z,3.85
2023-10-10T23:55:03.011Z,4.07
2023-10-10T23:57:29.971Z,4.15
2023-10-10T23:59:56.834Z,4.45
